Salamanca, New York
Current Conditions -  °F | °C
As of 2:55 PM on Wednesday 17 Dec 2014 (Local Time) from KOLE Reporting Station
Overcast Overcast  
Wind Chill: 21°   Ceiling: 1400
Heat Index: 30°   Visibility: 10mi
Dew Point: 30°   Wind: 12mph
Humidity: 100%   Direction: 280°W
Pressure: 29.87"   Gusts: 24mph
Location:  42.15°N, 78.71°W
Report Text: KOLE 171955Z AUTO 28010G21KT 240V340 10SM OVC014 M01/M01 A2987 RMK AO2
Loading
Personal Weather Stations






























Interactive Weather Map New forecast layout! Learn more

10-Day Weather Forecast

Advertisements
Track Severe Weather on mobile